sensor_id;sensor_type;location;lat;lon;timestamp;temperature;humidity
29571;DHT22;16814;52.118;11.436;2023-11-22T00:00:39;0.80;99.90
29571;DHT22;16814;52.118;11.436;2023-11-22T00:03:05;0.70;99.90
29571;DHT22;16814;52.118;11.436;2023-11-22T00:05:31;0.50;99.90
29571;DHT22;16814;52.118;11.436;2023-11-22T00:07:59;0.40;99.90
29571;DHT22;16814;52.118;11.436;2023-11-22T00:10:24;0.50;99.90
29571;DHT22;16814;52.118;11.436;2023-11-22T00:12:52;0.50;99.90
29571;DHT22;16814;52.118;11.436;2023-11-22T00:15:19;0.40;99.90
29571;DHT22;16814;52.118;11.436;2023-11-22T00:17:46;0.70;99.90
29571;DHT22;16814;52.118;11.436;2023-11-22T00:20:12;0.30;99.90
29571;DHT22;16814;52.118;11.436;2023-11-22T00:22:41;0.20;99.90
29571;DHT22;16814;52.118;11.436;2023-11-22T00:25:09;0.20;99.90
29571;DHT22;16814;52.118;11.436;2023-11-22T00:27:36;0.20;99.90
29571;DHT22;16814;52.118;11.436;2023-11-22T00:30:03;0.30;99.90
29571;DHT22;16814;52.118;11.436;2023-11-22T00:32:31;0.30;99.90
29571;DHT22;16814;52.118;11.436;2023-11-22T00:34:59;0.20;99.90
29571;DHT22;16814;52.118;11.436;2023-11-22T00:37:27;0.30;99.90
29571;DHT22;16814;52.118;11.436;2023-11-22T00:39:53;0.30;99.90
29571;DHT22;16814;52.118;11.436;2023-11-22T00:42:19;0.20;99.90
29571;DHT22;16814;52.118;11.436;2023-11-22T00:44:45;0.20;99.90
29571;DHT22;16814;52.118;11.436;2023-11-22T00:47:11;0.20;99.90
29571;DHT22;16814;52.118;11.436;2023-11-22T00:49:38;0.10;99.90
29571;DHT22;16814;52.118;11.436;2023-11-22T00:52:04;0.50;99.90
29571;DHT22;16814;52.118;11.436;2023-11-22T00:54:33;0.00;99.90
29571;DHT22;16814;52.118;11.436;2023-11-22T00:56:59;0.00;99.90
29571;DHT22;16814;52.118;11.436;2023-11-22T00:59:25;0.00;99.90
29571;DHT22;16814;52.118;11.436;2023-11-22T01:01:53;0.00;99.90
29571;DHT22;16814;52.118;11.436;2023-11-22T01:04:19;0.10;99.90
29571;DHT22;16814;52.118;11.436;2023-11-22T01:06:45;0.20;99.90
29571;DHT22;16814;52.118;11.436;2023-11-22T01:09:14;-0.10;99.90
29571;DHT22;16814;52.118;11.436;2023-11-22T01:11:41;-0.10;99.90
29571;DHT22;16814;52.118;11.436;2023-11-22T01:14:11;-0.20;99.90
29571;DHT22;16814;52.118;11.436;2023-11-22T01:16:37;-0.20;99.90
29571;DHT22;16814;52.118;11.436;2023-11-22T01:19:02;-0.10;99.90
29571;DHT22;16814;52.118;11.436;2023-11-22T01:21:29;-0.10;99.90
29571;DHT22;16814;52.118;11.436;2023-11-22T01:23:55;0.10;99.90
29571;DHT22;16814;52.118;11.436;2023-11-22T01:26:24;0.10;99.90
29571;DHT22;16814;52.118;11.436;2023-11-22T01:28:53;0.10;99.90
29571;DHT22;16814;52.118;11.436;2023-11-22T01:31:23;0.10;99.90
29571;DHT22;16814;52.118;11.436;2023-11-22T01:33:50;0.10;99.90
29571;DHT22;16814;52.118;11.436;2023-11-22T01:36:16;0.00;99.90
29571;DHT22;16814;52.118;11.436;2023-11-22T01:38:41;0.10;99.90
29571;DHT22;16814;52.118;11.436;2023-11-22T01:41:11;0.10;99.90
29571;DHT22;16814;52.118;11.436;2023-11-22T01:43:41;0.10;99.90
29571;DHT22;16814;52.118;11.436;2023-11-22T01:46:14;0.10;99.90
29571;DHT22;16814;52.118;11.436;2023-11-22T01:48:44;0.10;99.90
29571;DHT22;16814;52.118;11.436;2023-11-22T01:51:12;0.10;99.90
29571;DHT22;16814;52.118;11.436;2023-11-22T01:53:37;0.20;99.90
29571;DHT22;16814;52.118;11.436;2023-11-22T01:56:04;0.10;99.90
29571;DHT22;16814;52.118;11.436;2023-11-22T01:58:41;0.00;99.90
29571;DHT22;16814;52.118;11.436;2023-11-22T02:01:11;0.00;99.90
29571;DHT22;16814;52.118;11.436;2023-11-22T02:03:38;0.00;99.90
29571;DHT22;16814;52.118;11.436;2023-11-22T02:06:06;0.10;99.90
29571;DHT22;16814;52.118;11.436;2023-11-22T02:08:37;0.00;99.90
29571;DHT22;16814;52.118;11.436;2023-11-22T02:11:04;0.10;99.90
29571;DHT22;16814;52.118;11.436;2023-11-22T02:13:33;0.00;99.90
29571;DHT22;16814;52.118;11.436;2023-11-22T02:15:58;-0.10;99.90
29571;DHT22;16814;52.118;11.436;2023-11-22T02:18:28;0.00;99.90
29571;DHT22;16814;52.118;11.436;2023-11-22T02:20:54;0.00;99.90
29571;DHT22;16814;52.118;11.436;2023-11-22T02:23:20;0.00;99.90
29571;DHT22;16814;52.118;11.436;2023-11-22T02:25:46;-0.10;99.90
29571;DHT22;16814;52.118;11.436;2023-11-22T02:28:13;-0.20;99.90
29571;DHT22;16814;52.118;11.436;2023-11-22T02:30:40;-0.10;99.90
29571;DHT22;16814;52.118;11.436;2023-11-22T02:33:08;-0.10;99.90
29571;DHT22;16814;52.118;11.436;2023-11-22T02:35:35;-0.10;99.90
29571;DHT22;16814;52.118;11.436;2023-11-22T02:38:01;-0.10;99.90
29571;DHT22;16814;52.118;11.436;2023-11-22T02:40:28;-0.20;99.90
29571;DHT22;16814;52.118;11.436;2023-11-22T02:42:55;-0.30;99.90
29571;DHT22;16814;52.118;11.436;2023-11-22T02:45:34;-0.30;99.90
29571;DHT22;16814;52.118;11.436;2023-11-22T02:48:02;-0.20;99.90
29571;DHT22;16814;52.118;11.436;2023-11-22T02:50:30;-0.20;99.90
29571;DHT22;16814;52.118;11.436;2023-11-22T02:53:10;-0.30;99.90
29571;DHT22;16814;52.118;11.436;2023-11-22T02:55:37;-0.30;99.90
29571;DHT22;16814;52.118;11.436;2023-11-22T02:58:04;-0.30;99.90
29571;DHT22;16814;52.118;11.436;2023-11-22T03:00:32;-0.30;99.90
29571;DHT22;16814;52.118;11.436;2023-11-22T03:03:02;-0.20;99.90
29571;DHT22;16814;52.118;11.436;2023-11-22T03:05:30;-0.30;99.90
29571;DHT22;16814;52.118;11.436;2023-11-22T03:07:57;-0.20;99.90
29571;DHT22;16814;52.118;11.436;2023-11-22T03:10:24;-0.20;99.90
29571;DHT22;16814;52.118;11.436;2023-11-22T03:12:51;-0.20;99.90
29571;DHT22;16814;52.118;11.436;2023-11-22T03:15:19;-0.30;99.90
29571;DHT22;16814;52.118;11.436;2023-11-22T03:17:47;-0.40;99.90
29571;DHT22;16814;52.118;11.436;2023-11-22T03:20:15;-0.40;99.90
29571;DHT22;16814;52.118;11.436;2023-11-22T03:22:43;-0.40;99.90
29571;DHT22;16814;52.118;11.436;2023-11-22T03:25:15;-0.40;99.90
29571;DHT22;16814;52.118;11.436;2023-11-22T03:27:42;-0.50;99.90
29571;DHT22;16814;52.118;11.436;2023-11-22T03:30:09;-0.40;99.90
29571;DHT22;16814;52.118;11.436;2023-11-22T03:32:39;-0.40;99.90
29571;DHT22;16814;52.118;11.436;2023-11-22T03:35:07;-0.40;99.90
29571;DHT22;16814;52.118;11.436;2023-11-22T03:37:35;-0.30;99.90
29571;DHT22;16814;52.118;11.436;2023-11-22T03:40:11;-0.40;99.90
29571;DHT22;16814;52.118;11.436;2023-11-22T03:42:38;-0.30;99.90
29571;DHT22;16814;52.118;11.436;2023-11-22T03:45:07;-0.30;99.90
29571;DHT22;16814;52.118;11.436;2023-11-22T03:47:33;-0.30;99.90
29571;DHT22;16814;52.118;11.436;2023-11-22T03:50:00;-0.30;99.90
29571;DHT22;16814;52.118;11.436;2023-11-22T03:52:26;-0.30;99.90
29571;DHT22;16814;52.118;11.436;2023-11-22T03:54:59;-0.40;99.90
29571;DHT22;16814;52.118;11.436;2023-11-22T03:57:27;-0.40;99.90
29571;DHT22;16814;52.118;11.436;2023-11-22T03:59:54;-0.30;99.90
29571;DHT22;16814;52.118;11.436;2023-11-22T04:02:20;-0.30;99.90
29571;DHT22;16814;52.118;11.436;2023-11-22T04:04:47;0.00;99.90
29571;DHT22;16814;52.118;11.436;2023-11-22T04:07:12;-0.40;99.90
29571;DHT22;16814;52.118;11.436;2023-11-22T04:09:39;-0.40;99.90
29571;DHT22;16814;52.118;11.436;2023-11-22T04:12:07;-0.40;99.90
29571;DHT22;16814;52.118;11.436;2023-11-22T04:14:32;-0.40;99.90
29571;DHT22;16814;52.118;11.436;2023-11-22T04:16:58;-0.50;99.90
29571;DHT22;16814;52.118;11.436;2023-11-22T04:19:23;-0.40;99.90
29571;DHT22;16814;52.118;11.436;2023-11-22T04:21:50;-0.40;99.90
29571;DHT22;16814;52.118;11.436;2023-11-22T04:24:19;-0.40;99.90
29571;DHT22;16814;52.118;11.436;2023-11-22T04:26:46;-0.60;99.90
29571;DHT22;16814;52.118;11.436;2023-11-22T04:29:13;-0.70;99.90
29571;DHT22;16814;52.118;11.436;2023-11-22T04:31:41;-0.70;99.90
29571;DHT22;16814;52.118;11.436;2023-11-22T04:34:07;-0.50;99.90
29571;DHT22;16814;52.118;11.436;2023-11-22T04:36:33;-0.50;99.90
29571;DHT22;16814;52.118;11.436;2023-11-22T04:38:58;-0.40;99.90
29571;DHT22;16814;52.118;11.436;2023-11-22T04:41:25;-0.50;99.90
29571;DHT22;16814;52.118;11.436;2023-11-22T04:43:53;-0.50;99.90
29571;DHT22;16814;52.118;11.436;2023-11-22T04:46:20;-0.60;99.90
29571;DHT22;16814;52.118;11.436;2023-11-22T04:48:46;-0.60;99.90
29571;DHT22;16814;52.118;11.436;2023-11-22T04:51:18;-0.50;99.90
29571;DHT22;16814;52.118;11.436;2023-11-22T04:53:44;-0.50;99.90
29571;DHT22;16814;52.118;11.436;2023-11-22T04:56:10;-0.60;99.90
29571;DHT22;16814;52.118;11.436;2023-11-22T04:58:39;-0.60;99.90
29571;DHT22;16814;52.118;11.436;2023-11-22T05:01:05;-0.60;99.90
29571;DHT22;16814;52.118;11.436;2023-11-22T05:03:33;-0.60;99.90
29571;DHT22;16814;52.118;11.436;2023-11-22T05:05:59;-0.80;99.90
29571;DHT22;16814;52.118;11.436;2023-11-22T05:08:26;-0.80;99.90
29571;DHT22;16814;52.118;11.436;2023-11-22T05:10:54;-0.80;99.90
29571;DHT22;16814;52.118;11.436;2023-11-22T05:13:20;-0.70;99.90
29571;DHT22;16814;52.118;11.436;2023-11-22T05:15:47;-0.80;99.90
29571;DHT22;16814;52.118;11.436;2023-11-22T05:18:15;-0.80;99.90
29571;DHT22;16814;52.118;11.436;2023-11-22T05:20:41;-0.80;99.90
29571;DHT22;16814;52.118;11.436;2023-11-22T05:23:07;-0.90;99.90
29571;DHT22;16814;52.118;11.436;2023-11-22T05:25:34;-0.90;99.90
29571;DHT22;16814;52.118;11.436;2023-11-22T05:28:02;-1.00;99.90
29571;DHT22;16814;52.118;11.436;2023-11-22T05:30:30;-1.10;99.90
29571;DHT22;16814;52.118;11.436;2023-11-22T05:32:59;-1.10;99.90
29571;DHT22;16814;52.118;11.436;2023-11-22T05:35:26;-1.10;99.90
29571;DHT22;16814;52.118;11.436;2023-11-22T05:37:53;-1.20;99.90
29571;DHT22;16814;52.118;11.436;2023-11-22T05:40:20;-1.10;99.90
29571;DHT22;16814;52.118;11.436;2023-11-22T05:42:49;-1.40;99.90
29571;DHT22;16814;52.118;11.436;2023-11-22T05:45:16;-1.10;99.90
29571;DHT22;16814;52.118;11.436;2023-11-22T05:47:43;-1.10;99.90
29571;DHT22;16814;52.118;11.436;2023-11-22T05:50:10;-1.10;99.90
29571;DHT22;16814;52.118;11.436;2023-11-22T05:52:38;-1.00;99.90
29571;DHT22;16814;52.118;11.436;2023-11-22T05:55:06;-1.10;99.90
29571;DHT22;16814;52.118;11.436;2023-11-22T05:57:35;-1.20;99.90
29571;DHT22;16814;52.118;11.436;2023-11-22T06:00:01;-1.00;99.90
29571;DHT22;16814;52.118;11.436;2023-11-22T06:02:29;-1.10;99.90
29571;DHT22;16814;52.118;11.436;2023-11-22T06:04:54;-1.20;99.90
29571;DHT22;16814;52.118;11.436;2023-11-22T06:07:20;-1.20;99.90
29571;DHT22;16814;52.118;11.436;2023-11-22T06:09:49;-1.20;99.90
29571;DHT22;16814;52.118;11.436;2023-11-22T06:12:14;-1.10;99.90
29571;DHT22;16814;52.118;11.436;2023-11-22T06:14:40;-1.00;99.90
29571;DHT22;16814;52.118;11.436;2023-11-22T06:17:05;-1.20;99.90
29571;DHT22;16814;52.118;11.436;2023-11-22T06:19:31;-1.30;99.90
29571;DHT22;16814;52.118;11.436;2023-11-22T06:21:58;-1.30;99.90
29571;DHT22;16814;52.118;11.436;2023-11-22T06:24:24;-1.30;99.90
29571;DHT22;16814;52.118;11.436;2023-11-22T06:26:52;-1.40;99.90
29571;DHT22;16814;52.118;11.436;2023-11-22T06:29:18;-1.30;99.90
29571;DHT22;16814;52.118;11.436;2023-11-22T06:31:45;-1.30;99.90
29571;DHT22;16814;52.118;11.436;2023-11-22T06:34:15;-1.30;99.90
29571;DHT22;16814;52.118;11.436;2023-11-22T06:36:41;-1.40;99.90
29571;DHT22;16814;52.118;11.436;2023-11-22T06:39:06;-1.40;99.90
29571;DHT22;16814;52.118;11.436;2023-11-22T06:41:36;-1.40;99.90
29571;DHT22;16814;52.118;11.436;2023-11-22T06:44:05;-1.30;99.90
29571;DHT22;16814;52.118;11.436;2023-11-22T06:46:31;-1.30;99.90
29571;DHT22;16814;52.118;11.436;2023-11-22T06:48:57;-1.30;99.90
29571;DHT22;16814;52.118;11.436;2023-11-22T06:51:23;-1.30;99.90
29571;DHT22;16814;52.118;11.436;2023-11-22T06:53:52;-1.30;99.90
29571;DHT22;16814;52.118;11.436;2023-11-22T06:56:20;-1.30;99.90
29571;DHT22;16814;52.118;11.436;2023-11-22T06:58:46;-1.30;99.90
29571;DHT22;16814;52.118;11.436;2023-11-22T07:01:12;-1.60;99.90
29571;DHT22;16814;52.118;11.436;2023-11-22T07:03:39;-1.30;99.90
29571;DHT22;16814;52.118;11.436;2023-11-22T07:06:07;-1.20;99.90
29571;DHT22;16814;52.118;11.436;2023-11-22T07:08:35;-1.20;99.90
29571;DHT22;16814;52.118;11.436;2023-11-22T07:11:01;-1.20;99.90
29571;DHT22;16814;52.118;11.436;2023-11-22T07:13:32;-1.20;99.90
29571;DHT22;16814;52.118;11.436;2023-11-22T07:16:01;-1.20;99.90
29571;DHT22;16814;52.118;11.436;2023-11-22T07:18:31;-1.20;99.90
29571;DHT22;16814;52.118;11.436;2023-11-22T07:20:59;-1.20;99.90
29571;DHT22;16814;52.118;11.436;2023-11-22T07:23:25;-1.20;99.90
29571;DHT22;16814;52.118;11.436;2023-11-22T07:25:53;-1.20;99.90
29571;DHT22;16814;52.118;11.436;2023-11-22T07:28:20;-1.10;99.90
29571;DHT22;16814;52.118;11.436;2023-11-22T07:30:50;-1.00;99.90
29571;DHT22;16814;52.118;11.436;2023-11-22T07:33:17;-1.00;99.90
29571;DHT22;16814;52.118;11.436;2023-11-22T07:35:47;-1.10;99.90
29571;DHT22;16814;52.118;11.436;2023-11-22T07:38:14;-1.10;99.90
29571;DHT22;16814;52.118;11.436;2023-11-22T07:40:39;-1.20;99.90
29571;DHT22;16814;52.118;11.436;2023-11-22T07:43:09;-1.30;99.90
29571;DHT22;16814;52.118;11.436;2023-11-22T07:45:35;-1.30;99.90
29571;DHT22;16814;52.118;11.436;2023-11-22T07:48:06;-1.20;99.90
29571;DHT22;16814;52.118;11.436;2023-11-22T07:50:32;-1.30;99.90
29571;DHT22;16814;52.118;11.436;2023-11-22T07:53:02;-1.30;99.90
29571;DHT22;16814;52.118;11.436;2023-11-22T07:55:30;-1.20;99.90
29571;DHT22;16814;52.118;11.436;2023-11-22T07:57:57;-1.10;99.90
29571;DHT22;16814;52.118;11.436;2023-11-22T08:00:26;-0.90;99.90
29571;DHT22;16814;52.118;11.436;2023-11-22T08:02:54;-0.90;99.90
29571;DHT22;16814;52.118;11.436;2023-11-22T08:05:20;-1.00;99.90
29571;DHT22;16814;52.118;11.436;2023-11-22T08:07:51;-1.10;99.90
29571;DHT22;16814;52.118;11.436;2023-11-22T08:10:19;-1.10;99.90
29571;DHT22;16814;52.118;11.436;2023-11-22T08:12:48;-0.80;99.90
29571;DHT22;16814;52.118;11.436;2023-11-22T08:15:20;-0.80;99.90
29571;DHT22;16814;52.118;11.436;2023-11-22T08:17:58;-0.90;99.90
29571;DHT22;16814;52.118;11.436;2023-11-22T08:20:28;-0.80;99.90
29571;DHT22;16814;52.118;11.436;2023-11-22T08:22:54;-0.80;99.90
29571;DHT22;16814;52.118;11.436;2023-11-22T08:25:20;-0.90;99.90
29571;DHT22;16814;52.118;11.436;2023-11-22T08:27:50;-0.90;99.90
29571;DHT22;16814;52.118;11.436;2023-11-22T08:30:17;-0.90;99.90
29571;DHT22;16814;52.118;11.436;2023-11-22T08:32:45;-0.80;99.90
29571;DHT22;16814;52.118;11.436;2023-11-22T08:35:18;-0.70;99.90
29571;DHT22;16814;52.118;11.436;2023-11-22T08:37:45;-0.60;99.90
29571;DHT22;16814;52.118;11.436;2023-11-22T08:40:14;-0.50;99.90
29571;DHT22;16814;52.118;11.436;2023-11-22T08:42:41;-0.60;99.90
29571;DHT22;16814;52.118;11.436;2023-11-22T08:45:08;-0.60;99.90
29571;DHT22;16814;52.118;11.436;2023-11-22T08:47:42;-0.60;99.90
29571;DHT22;16814;52.118;11.436;2023-11-22T08:50:09;-0.60;99.90
29571;DHT22;16814;52.118;11.436;2023-11-22T08:52:41;-0.60;99.90
29571;DHT22;16814;52.118;11.436;2023-11-22T08:55:12;-0.60;99.90
29571;DHT22;16814;52.118;11.436;2023-11-22T08:57:40;-0.50;99.90
29571;DHT22;16814;52.118;11.436;2023-11-22T09:00:08;-0.50;99.90
29571;DHT22;16814;52.118;11.436;2023-11-22T09:02:37;-0.60;99.90
29571;DHT22;16814;52.118;11.436;2023-11-22T09:05:06;-0.50;99.90
29571;DHT22;16814;52.118;11.436;2023-11-22T09:07:53;-0.30;99.90
29571;DHT22;16814;52.118;11.436;2023-11-22T09:10:40;-0.30;99.90
29571;DHT22;16814;52.118;11.436;2023-11-22T09:13:07;-0.20;99.90
29571;DHT22;16814;52.118;11.436;2023-11-22T09:15:33;0.00;99.90
29571;DHT22;16814;52.118;11.436;2023-11-22T09:18:18;0.10;99.90
29571;DHT22;16814;52.118;11.436;2023-11-22T09:20:47;0.10;99.90
29571;DHT22;16814;52.118;11.436;2023-11-22T09:23:13;0.10;99.90
29571;DHT22;16814;52.118;11.436;2023-11-22T09:25:42;0.10;99.90
29571;DHT22;16814;52.118;11.436;2023-11-22T09:28:11;0.20;99.90
29571;DHT22;16814;52.118;11.436;2023-11-22T09:30:38;0.10;99.90
29571;DHT22;16814;52.118;11.436;2023-11-22T09:33:08;0.20;99.90
29571;DHT22;16814;52.118;11.436;2023-11-22T09:35:36;0.20;99.90
29571;DHT22;16814;52.118;11.436;2023-11-22T09:38:04;0.30;99.90
29571;DHT22;16814;52.118;11.436;2023-11-22T09:40:30;0.40;99.90
29571;DHT22;16814;52.118;11.436;2023-11-22T09:43:00;0.60;99.90
29571;DHT22;16814;52.118;11.436;2023-11-22T09:45:30;0.90;99.90
29571;DHT22;16814;52.118;11.436;2023-11-22T09:47:57;0.90;99.90
29571;DHT22;16814;52.118;11.436;2023-11-22T09:53:58;1.00;99.90
29571;DHT22;16814;52.118;11.436;2023-11-22T09:56:28;1.00;99.90
29571;DHT22;16814;52.118;11.436;2023-11-22T09:59:00;1.00;99.90
29571;DHT22;16814;52.118;11.436;2023-11-22T10:01:33;1.00;99.90
29571;DHT22;16814;52.118;11.436;2023-11-22T10:04:03;1.00;99.90
29571;DHT22;16814;52.118;11.436;2023-11-22T10:06:41;1.20;99.90
29571;DHT22;16814;52.118;11.436;2023-11-22T10:09:14;1.30;99.90
29571;DHT22;16814;52.118;11.436;2023-11-22T10:11:41;1.20;99.90
29571;DHT22;16814;52.118;11.436;2023-11-22T10:14:11;1.10;99.90
29571;DHT22;16814;52.118;11.436;2023-11-22T10:17:00;1.20;99.90
29571;DHT22;16814;52.118;11.436;2023-11-22T10:19:27;1.30;99.90
29571;DHT22;16814;52.118;11.436;2023-11-22T10:22:07;1.50;99.90
29571;DHT22;16814;52.118;11.436;2023-11-22T10:24:34;1.60;99.90
29571;DHT22;16814;52.118;11.436;2023-11-22T10:27:01;1.60;99.90
29571;DHT22;16814;52.118;11.436;2023-11-22T10:29:29;1.30;99.90
29571;DHT22;16814;52.118;11.436;2023-11-22T10:31:56;1.30;99.90
29571;DHT22;16814;52.118;11.436;2023-11-22T10:34:24;1.30;99.90
29571;DHT22;16814;52.118;11.436;2023-11-22T10:36:51;1.40;99.90
29571;DHT22;16814;52.118;11.436;2023-11-22T10:39:22;1.40;99.90
29571;DHT22;16814;52.118;11.436;2023-11-22T10:41:51;1.50;99.90
29571;DHT22;16814;52.118;11.436;2023-11-22T10:44:20;1.40;99.90
29571;DHT22;16814;52.118;11.436;2023-11-22T10:46:47;1.50;99.90
29571;DHT22;16814;52.118;11.436;2023-11-22T10:49:14;1.60;99.90
29571;DHT22;16814;52.118;11.436;2023-11-22T10:51:41;1.70;99.90
29571;DHT22;16814;52.118;11.436;2023-11-22T10:54:09;1.70;99.90
29571;DHT22;16814;52.118;11.436;2023-11-22T10:56:39;1.80;99.90
29571;DHT22;16814;52.118;11.436;2023-11-22T10:59:15;1.90;99.90
29571;DHT22;16814;52.118;11.436;2023-11-22T11:01:48;1.80;99.90
29571;DHT22;16814;52.118;11.436;2023-11-22T11:04:34;1.80;99.90
29571;DHT22;16814;52.118;11.436;2023-11-22T11:07:06;1.80;99.90
29571;DHT22;16814;52.118;11.436;2023-11-22T11:09:37;1.20;99.90
29571;DHT22;16814;52.118;11.436;2023-11-22T11:12:04;1.00;99.90
29571;DHT22;16814;52.118;11.436;2023-11-22T11:14:31;1.00;99.90
29571;DHT22;16814;52.118;11.436;2023-11-22T11:16:59;1.30;99.90
29571;DHT22;16814;52.118;11.436;2023-11-22T11:19:27;1.30;99.90
29571;DHT22;16814;52.118;11.436;2023-11-22T11:21:55;1.70;99.90
29571;DHT22;16814;52.118;11.436;2023-11-22T11:24:23;2.00;99.90
29571;DHT22;16814;52.118;11.436;2023-11-22T11:26:50;2.30;99.90
29571;DHT22;16814;52.118;11.436;2023-11-22T11:29:46;2.50;99.90
29571;DHT22;16814;52.118;11.436;2023-11-22T11:32:39;2.40;99.90
29571;DHT22;16814;52.118;11.436;2023-11-22T11:35:08;2.30;99.90
29571;DHT22;16814;52.118;11.436;2023-11-22T11:37:37;2.50;99.90
29571;DHT22;16814;52.118;11.436;2023-11-22T11:40:25;2.60;99.90
29571;DHT22;16814;52.118;11.436;2023-11-22T11:42:52;2.60;99.90
29571;DHT22;16814;52.118;11.436;2023-11-22T11:45:20;2.50;99.90
29571;DHT22;16814;52.118;11.436;2023-11-22T11:47:47;2.80;99.90
29571;DHT22;16814;52.118;11.436;2023-11-22T11:50:12;2.60;99.90
29571;DHT22;16814;52.118;11.436;2023-11-22T11:52:39;2.60;99.90
29571;DHT22;16814;52.118;11.436;2023-11-22T11:55:07;2.80;99.90
29571;DHT22;16814;52.118;11.436;2023-11-22T11:57:34;2.80;99.90
29571;DHT22;16814;52.118;11.436;2023-11-22T12:00:02;3.10;99.90
29571;DHT22;16814;52.118;11.436;2023-11-22T12:02:32;3.10;99.90
29571;DHT22;16814;52.118;11.436;2023-11-22T12:05:01;3.10;99.90
29571;DHT22;16814;52.118;11.436;2023-11-22T12:07:41;3.10;99.90
29571;DHT22;16814;52.118;11.436;2023-11-22T12:10:10;3.20;99.90
29571;DHT22;16814;52.118;11.436;2023-11-22T12:12:36;3.30;99.90
29571;DHT22;16814;52.118;11.436;2023-11-22T12:15:04;3.10;99.90
29571;DHT22;16814;52.118;11.436;2023-11-22T12:17:33;2.90;99.90
29571;DHT22;16814;52.118;11.436;2023-11-22T12:20:17;2.90;99.90
29571;DHT22;16814;52.118;11.436;2023-11-22T12:22:47;2.70;99.90
29571;DHT22;16814;52.118;11.436;2023-11-22T12:25:15;2.50;99.90
29571;DHT22;16814;52.118;11.436;2023-11-22T12:27:55;2.60;99.90
29571;DHT22;16814;52.118;11.436;2023-11-22T12:30:34;2.60;99.90
29571;DHT22;16814;52.118;11.436;2023-11-22T12:33:06;2.60;99.90
29571;DHT22;16814;52.118;11.436;2023-11-22T12:35:44;2.70;99.90
29571;DHT22;16814;52.118;11.436;2023-11-22T12:38:11;2.40;99.90
29571;DHT22;16814;52.118;11.436;2023-11-22T12:40:44;2.40;99.90
29571;DHT22;16814;52.118;11.436;2023-11-22T12:43:14;2.60;99.90
29571;DHT22;16814;52.118;11.436;2023-11-22T12:45:41;2.70;99.90
29571;DHT22;16814;52.118;11.436;2023-11-22T12:48:27;2.70;99.90
29571;DHT22;16814;52.118;11.436;2023-11-22T12:50:58;2.60;99.90
29571;DHT22;16814;52.118;11.436;2023-11-22T12:53:26;2.60;99.90
29571;DHT22;16814;52.118;11.436;2023-11-22T12:55:55;2.70;99.90
29571;DHT22;16814;52.118;11.436;2023-11-22T12:58:29;2.60;99.90
29571;DHT22;16814;52.118;11.436;2023-11-22T13:00:57;2.70;99.90
29571;DHT22;16814;52.118;11.436;2023-11-22T13:03:30;2.80;99.90
29571;DHT22;16814;52.118;11.436;2023-11-22T13:06:01;2.60;99.90
29571;DHT22;16814;52.118;11.436;2023-11-22T13:08:26;2.60;99.90
29571;DHT22;16814;52.118;11.436;2023-11-22T13:10:56;2.70;99.90
29571;DHT22;16814;52.118;11.436;2023-11-22T13:13:25;2.70;99.90
29571;DHT22;16814;52.118;11.436;2023-11-22T13:15:58;2.50;99.90
29571;DHT22;16814;52.118;11.436;2023-11-22T13:18:26;2.50;99.90
29571;DHT22;16814;52.118;11.436;2023-11-22T13:20:53;2.20;99.90
29571;DHT22;16814;52.118;11.436;2023-11-22T13:23:20;2.20;99.90
29571;DHT22;16814;52.118;11.436;2023-11-22T13:25:47;2.20;99.90
29571;DHT22;16814;52.118;11.436;2023-11-22T13:28:15;2.30;99.90
29571;DHT22;16814;52.118;11.436;2023-11-22T13:30:43;2.30;99.90
29571;DHT22;16814;52.118;11.436;2023-11-22T13:33:09;2.20;99.90
29571;DHT22;16814;52.118;11.436;2023-11-22T13:35:40;2.20;99.90
29571;DHT22;16814;52.118;11.436;2023-11-22T13:38:08;2.20;99.90
29571;DHT22;16814;52.118;11.436;2023-11-22T13:40:42;2.20;99.90
29571;DHT22;16814;52.118;11.436;2023-11-22T13:43:13;2.20;99.90
29571;DHT22;16814;52.118;11.436;2023-11-22T13:45:39;2.10;99.90
29571;DHT22;16814;52.118;11.436;2023-11-22T13:48:08;2.00;99.90
29571;DHT22;16814;52.118;11.436;2023-11-22T13:50:35;2.00;99.90
29571;DHT22;16814;52.118;11.436;2023-11-22T13:53:03;2.00;99.90
29571;DHT22;16814;52.118;11.436;2023-11-22T13:55:32;2.00;99.90
29571;DHT22;16814;52.118;11.436;2023-11-22T13:58:00;2.00;99.90
29571;DHT22;16814;52.118;11.436;2023-11-22T14:00:29;1.90;99.90
29571;DHT22;16814;52.118;11.436;2023-11-22T14:03:02;1.90;99.90
29571;DHT22;16814;52.118;11.436;2023-11-22T14:05:39;1.90;99.90
29571;DHT22;16814;52.118;11.436;2023-11-22T14:08:06;1.70;99.90
29571;DHT22;16814;52.118;11.436;2023-11-22T14:10:33;1.80;99.90
29571;DHT22;16814;52.118;11.436;2023-11-22T14:13:02;1.80;99.90
29571;DHT22;16814;52.118;11.436;2023-11-22T14:15:30;1.70;99.90
29571;DHT22;16814;52.118;11.436;2023-11-22T14:17:58;1.80;99.90
29571;DHT22;16814;52.118;11.436;2023-11-22T14:20:26;1.80;99.90
29571;DHT22;16814;52.118;11.436;2023-11-22T14:22:55;1.80;99.90
29571;DHT22;16814;52.118;11.436;2023-11-22T14:25:22;1.80;99.90
29571;DHT22;16814;52.118;11.436;2023-11-22T14:27:49;1.70;99.90
29571;DHT22;16814;52.118;11.436;2023-11-22T14:30:20;1.70;99.90
29571;DHT22;16814;52.118;11.436;2023-11-22T14:32:48;1.60;99.90
29571;DHT22;16814;52.118;11.436;2023-11-22T14:35:16;1.60;99.90
29571;DHT22;16814;52.118;11.436;2023-11-22T14:37:44;1.60;99.90
29571;DHT22;16814;52.118;11.436;2023-11-22T14:40:11;1.60;99.90
29571;DHT22;16814;52.118;11.436;2023-11-22T14:42:49;1.60;99.90
29571;DHT22;16814;52.118;11.436;2023-11-22T14:45:19;1.60;99.90
29571;DHT22;16814;52.118;11.436;2023-11-22T14:47:56;1.60;99.90
29571;DHT22;16814;52.118;11.436;2023-11-22T14:50:24;1.60;99.90
29571;DHT22;16814;52.118;11.436;2023-11-22T14:52:56;1.70;99.90
29571;DHT22;16814;52.118;11.436;2023-11-22T14:55:24;1.60;99.90
29571;DHT22;16814;52.118;11.436;2023-11-22T14:57:52;1.70;99.90
29571;DHT22;16814;52.118;11.436;2023-11-22T15:00:26;1.70;99.90
29571;DHT22;16814;52.118;11.436;2023-11-22T15:02:53;1.50;99.90
29571;DHT22;16814;52.118;11.436;2023-11-22T15:05:23;1.40;99.90
29571;DHT22;16814;52.118;11.436;2023-11-22T15:07:51;1.40;99.90
29571;DHT22;16814;52.118;11.436;2023-11-22T15:10:27;1.30;99.90
29571;DHT22;16814;52.118;11.436;2023-11-22T15:12:54;1.20;99.90
29571;DHT22;16814;52.118;11.436;2023-11-22T15:15:29;1.40;99.90
29571;DHT22;16814;52.118;11.436;2023-11-22T15:17:55;1.40;99.90
29571;DHT22;16814;52.118;11.436;2023-11-22T15:20:21;1.30;99.90
29571;DHT22;16814;52.118;11.436;2023-11-22T15:22:48;1.30;99.90
29571;DHT22;16814;52.118;11.436;2023-11-22T15:25:14;1.10;99.90
29571;DHT22;16814;52.118;11.436;2023-11-22T15:27:42;1.10;99.90
29571;DHT22;16814;52.118;11.436;2023-11-22T15:30:09;1.20;99.90
29571;DHT22;16814;52.118;11.436;2023-11-22T15:32:39;1.30;99.90
29571;DHT22;16814;52.118;11.436;2023-11-22T15:35:05;1.30;99.90
29571;DHT22;16814;52.118;11.436;2023-11-22T15:37:32;1.30;99.90